sensor_id;sensor_type;location;lat;lon;timestamp;P1;durP1;ratioP1;P2;durP2;ratioP2
27305;SDS011;14792;50.886;6.468;2023-04-25T00:02:41;24.37;;;6.60;;
27305;SDS011;14792;50.886;6.468;2023-04-25T00:05:42;19.27;;;6.17;;
27305;SDS011;14792;50.886;6.468;2023-04-25T00:08:44;18.55;;;6.40;;
27305;SDS011;14792;50.886;6.468;2023-04-25T00:11:45;16.82;;;6.80;;
27305;SDS011;14792;50.886;6.468;2023-04-25T00:14:47;18.92;;;6.70;;
27305;SDS011;14792;50.886;6.468;2023-04-25T00:17:49;22.42;;;6.75;;
27305;SDS011;14792;50.886;6.468;2023-04-25T00:20:50;19.37;;;7.03;;
27305;SDS011;14792;50.886;6.468;2023-04-25T00:23:53;28.60;;;6.30;;
27305;SDS011;14792;50.886;6.468;2023-04-25T00:26:54;19.30;;;6.97;;
27305;SDS011;14792;50.886;6.468;2023-04-25T00:29:56;19.67;;;6.05;;
27305;SDS011;14792;50.886;6.468;2023-04-25T00:32:58;17.48;;;6.45;;
27305;SDS011;14792;50.886;6.468;2023-04-25T00:35:59;22.48;;;7.00;;
27305;SDS011;14792;50.886;6.468;2023-04-25T00:39:01;22.70;;;6.35;;
27305;SDS011;14792;50.886;6.468;2023-04-25T00:42:03;22.05;;;7.50;;
27305;SDS011;14792;50.886;6.468;2023-04-25T00:48:06;20.70;;;7.05;;
27305;SDS011;14792;50.886;6.468;2023-04-25T00:51:07;20.37;;;7.33;;
27305;SDS011;14792;50.886;6.468;2023-04-25T00:54:09;19.02;;;6.53;;
27305;SDS011;14792;50.886;6.468;2023-04-25T00:57:11;22.55;;;6.62;;
27305;SDS011;14792;50.886;6.468;2023-04-25T01:00:12;15.28;;;7.00;;
27305;SDS011;14792;50.886;6.468;2023-04-25T01:03:17;22.40;;;7.10;;
27305;SDS011;14792;50.886;6.468;2023-04-25T01:06:18;20.95;;;7.33;;
27305;SDS011;14792;50.886;6.468;2023-04-25T01:09:20;21.68;;;6.65;;
27305;SDS011;14792;50.886;6.468;2023-04-25T01:12:21;23.47;;;7.87;;
27305;SDS011;14792;50.886;6.468;2023-04-25T01:15:23;22.90;;;6.40;;
27305;SDS011;14792;50.886;6.468;2023-04-25T01:18:24;19.77;;;7.08;;
27305;SDS011;14792;50.886;6.468;2023-04-25T01:21:26;19.70;;;7.28;;
27305;SDS011;14792;50.886;6.468;2023-04-25T01:24:28;21.23;;;7.45;;
27305;SDS011;14792;50.886;6.468;2023-04-25T01:27:29;23.90;;;8.15;;
27305;SDS011;14792;50.886;6.468;2023-04-25T01:30:31;26.75;;;7.17;;
27305;SDS011;14792;50.886;6.468;2023-04-25T01:33:32;26.90;;;7.65;;
27305;SDS011;14792;50.886;6.468;2023-04-25T01:36:34;22.25;;;7.33;;
27305;SDS011;14792;50.886;6.468;2023-04-25T01:39:36;24.85;;;6.70;;
27305;SDS011;14792;50.886;6.468;2023-04-25T01:42:38;20.50;;;7.53;;
27305;SDS011;14792;50.886;6.468;2023-04-25T01:45:39;25.37;;;8.08;;
27305;SDS011;14792;50.886;6.468;2023-04-25T01:48:41;24.47;;;7.10;;
27305;SDS011;14792;50.886;6.468;2023-04-25T01:51:42;27.27;;;8.33;;
27305;SDS011;14792;50.886;6.468;2023-04-25T01:54:44;24.52;;;7.70;;
27305;SDS011;14792;50.886;6.468;2023-04-25T01:57:45;30.35;;;9.00;;
27305;SDS011;14792;50.886;6.468;2023-04-25T02:00:47;25.88;;;7.90;;
27305;SDS011;14792;50.886;6.468;2023-04-25T02:03:49;27.40;;;7.58;;
27305;SDS011;14792;50.886;6.468;2023-04-25T02:06:50;24.77;;;8.70;;
27305;SDS011;14792;50.886;6.468;2023-04-25T02:09:52;25.45;;;7.03;;
27305;SDS011;14792;50.886;6.468;2023-04-25T02:12:53;21.10;;;6.87;;
27305;SDS011;14792;50.886;6.468;2023-04-25T02:15:55;20.05;;;7.62;;
27305;SDS011;14792;50.886;6.468;2023-04-25T02:18:56;24.92;;;8.10;;
27305;SDS011;14792;50.886;6.468;2023-04-25T02:21:58;30.88;;;7.85;;
27305;SDS011;14792;50.886;6.468;2023-04-25T02:25:00;20.27;;;7.75;;
27305;SDS011;14792;50.886;6.468;2023-04-25T02:28:01;25.25;;;8.05;;
27305;SDS011;14792;50.886;6.468;2023-04-25T02:31:03;21.07;;;7.37;;
27305;SDS011;14792;50.886;6.468;2023-04-25T02:34:04;24.65;;;8.30;;
27305;SDS011;14792;50.886;6.468;2023-04-25T02:37:06;22.58;;;8.30;;
27305;SDS011;14792;50.886;6.468;2023-04-25T02:40:08;27.85;;;7.33;;
27305;SDS011;14792;50.886;6.468;2023-04-25T02:43:09;22.42;;;8.05;;
27305;SDS011;14792;50.886;6.468;2023-04-25T02:46:11;26.07;;;8.05;;
27305;SDS011;14792;50.886;6.468;2023-04-25T02:49:13;21.48;;;8.20;;
27305;SDS011;14792;50.886;6.468;2023-04-25T02:52:14;25.00;;;8.68;;
27305;SDS011;14792;50.886;6.468;2023-04-25T02:55:16;31.17;;;7.85;;
27305;SDS011;14792;50.886;6.468;2023-04-25T02:58:17;18.25;;;7.45;;
27305;SDS011;14792;50.886;6.468;2023-04-25T03:01:19;35.40;;;9.25;;
27305;SDS011;14792;50.886;6.468;2023-04-25T03:04:20;27.27;;;8.63;;
27305;SDS011;14792;50.886;6.468;2023-04-25T03:07:22;23.22;;;7.72;;
27305;SDS011;14792;50.886;6.468;2023-04-25T03:10:24;25.97;;;8.13;;
27305;SDS011;14792;50.886;6.468;2023-04-25T03:13:25;22.27;;;8.20;;
27305;SDS011;14792;50.886;6.468;2023-04-25T03:16:27;25.65;;;8.65;;
27305;SDS011;14792;50.886;6.468;2023-04-25T03:19:28;26.33;;;8.35;;
27305;SDS011;14792;50.886;6.468;2023-04-25T03:22:30;30.15;;;8.65;;
27305;SDS011;14792;50.886;6.468;2023-04-25T03:25:32;26.27;;;8.00;;
27305;SDS011;14792;50.886;6.468;2023-04-25T03:28:33;28.60;;;8.83;;
27305;SDS011;14792;50.886;6.468;2023-04-25T03:31:35;22.58;;;8.90;;
27305;SDS011;14792;50.886;6.468;2023-04-25T03:34:36;20.55;;;8.63;;
27305;SDS011;14792;50.886;6.468;2023-04-25T03:37:38;35.50;;;9.25;;
27305;SDS011;14792;50.886;6.468;2023-04-25T03:40:39;30.20;;;9.15;;
27305;SDS011;14792;50.886;6.468;2023-04-25T03:43:41;26.30;;;8.28;;
27305;SDS011;14792;50.886;6.468;2023-04-25T03:46:43;29.40;;;9.70;;
27305;SDS011;14792;50.886;6.468;2023-04-25T03:49:44;23.20;;;9.35;;
27305;SDS011;14792;50.886;6.468;2023-04-25T03:52:46;28.50;;;8.83;;
27305;SDS011;14792;50.886;6.468;2023-04-25T03:55:47;29.87;;;9.15;;
27305;SDS011;14792;50.886;6.468;2023-04-25T03:58:49;34.08;;;9.30;;
27305;SDS011;14792;50.886;6.468;2023-04-25T04:01:51;35.40;;;8.90;;
27305;SDS011;14792;50.886;6.468;2023-04-25T04:04:52;34.08;;;10.43;;
27305;SDS011;14792;50.886;6.468;2023-04-25T04:07:54;23.57;;;9.28;;
27305;SDS011;14792;50.886;6.468;2023-04-25T04:10:56;29.70;;;8.90;;
27305;SDS011;14792;50.886;6.468;2023-04-25T04:13:57;29.50;;;8.93;;
27305;SDS011;14792;50.886;6.468;2023-04-25T04:16:59;24.32;;;9.10;;
27305;SDS011;14792;50.886;6.468;2023-04-25T04:20:00;30.85;;;9.00;;
27305;SDS011;14792;50.886;6.468;2023-04-25T04:23:02;25.15;;;9.55;;
27305;SDS011;14792;50.886;6.468;2023-04-25T04:26:03;23.98;;;9.03;;
27305;SDS011;14792;50.886;6.468;2023-04-25T04:29:05;28.32;;;8.93;;
27305;SDS011;14792;50.886;6.468;2023-04-25T04:32:06;26.93;;;8.83;;
27305;SDS011;14792;50.886;6.468;2023-04-25T04:35:08;30.32;;;9.20;;
27305;SDS011;14792;50.886;6.468;2023-04-25T04:38:10;26.57;;;9.00;;
27305;SDS011;14792;50.886;6.468;2023-04-25T04:41:11;24.95;;;8.93;;
27305;SDS011;14792;50.886;6.468;2023-04-25T04:44:13;29.35;;;9.15;;
27305;SDS011;14792;50.886;6.468;2023-04-25T04:47:14;29.52;;;9.43;;
27305;SDS011;14792;50.886;6.468;2023-04-25T04:50:16;23.80;;;9.13;;
27305;SDS011;14792;50.886;6.468;2023-04-25T04:53:18;26.77;;;9.28;;
27305;SDS011;14792;50.886;6.468;2023-04-25T04:56:19;25.45;;;9.40;;
27305;SDS011;14792;50.886;6.468;2023-04-25T04:59:21;46.37;;;12.23;;
27305;SDS011;14792;50.886;6.468;2023-04-25T05:02:22;26.95;;;8.70;;
27305;SDS011;14792;50.886;6.468;2023-04-25T05:05:24;19.75;;;7.90;;
27305;SDS011;14792;50.886;6.468;2023-04-25T05:08:25;33.55;;;9.28;;
27305;SDS011;14792;50.886;6.468;2023-04-25T05:11:27;28.23;;;9.03;;
27305;SDS011;14792;50.886;6.468;2023-04-25T05:14:29;32.30;;;9.53;;
27305;SDS011;14792;50.886;6.468;2023-04-25T05:17:31;24.43;;;8.60;;
27305;SDS011;14792;50.886;6.468;2023-04-25T05:20:33;24.67;;;8.95;;
27305;SDS011;14792;50.886;6.468;2023-04-25T05:23:34;29.75;;;9.00;;
27305;SDS011;14792;50.886;6.468;2023-04-25T05:26:36;22.62;;;8.85;;
27305;SDS011;14792;50.886;6.468;2023-04-25T05:29:37;29.27;;;8.55;;
27305;SDS011;14792;50.886;6.468;2023-04-25T05:32:39;23.65;;;8.13;;
27305;SDS011;14792;50.886;6.468;2023-04-25T05:35:40;31.50;;;9.23;;
27305;SDS011;14792;50.886;6.468;2023-04-25T05:38:42;26.90;;;8.20;;
27305;SDS011;14792;50.886;6.468;2023-04-25T05:41:44;26.15;;;8.55;;
27305;SDS011;14792;50.886;6.468;2023-04-25T05:44:45;23.10;;;7.85;;
27305;SDS011;14792;50.886;6.468;2023-04-25T05:47:47;34.53;;;8.45;;
27305;SDS011;14792;50.886;6.468;2023-04-25T05:50:48;29.40;;;8.28;;
27305;SDS011;14792;50.886;6.468;2023-04-25T05:53:50;22.90;;;7.80;;
27305;SDS011;14792;50.886;6.468;2023-04-25T05:56:52;24.00;;;8.13;;
27305;SDS011;14792;50.886;6.468;2023-04-25T05:59:53;30.65;;;8.45;;
27305;SDS011;14792;50.886;6.468;2023-04-25T06:02:55;31.75;;;7.75;;
27305;SDS011;14792;50.886;6.468;2023-04-25T06:05:56;69.27;;;11.33;;
27305;SDS011;14792;50.886;6.468;2023-04-25T06:08:58;65.62;;;8.58;;
27305;SDS011;14792;50.886;6.468;2023-04-25T06:11:59;54.13;;;8.23;;
27305;SDS011;14792;50.886;6.468;2023-04-25T06:15:01;31.07;;;6.92;;
27305;SDS011;14792;50.886;6.468;2023-04-25T06:18:03;28.85;;;7.05;;
27305;SDS011;14792;50.886;6.468;2023-04-25T06:21:04;29.42;;;6.90;;
27305;SDS011;14792;50.886;6.468;2023-04-25T06:24:06;26.25;;;7.92;;
27305;SDS011;14792;50.886;6.468;2023-04-25T06:27:07;98.82;;;10.90;;
27305;SDS011;14792;50.886;6.468;2023-04-25T06:30:09;37.30;;;7.53;;
27305;SDS011;14792;50.886;6.468;2023-04-25T06:33:11;23.92;;;7.72;;
27305;SDS011;14792;50.886;6.468;2023-04-25T06:36:12;31.87;;;8.48;;
27305;SDS011;14792;50.886;6.468;2023-04-25T06:39:14;31.40;;;7.42;;
27305;SDS011;14792;50.886;6.468;2023-04-25T06:42:15;29.65;;;7.65;;
27305;SDS011;14792;50.886;6.468;2023-04-25T06:45:17;27.80;;;7.05;;
27305;SDS011;14792;50.886;6.468;2023-04-25T06:48:19;42.62;;;7.22;;
27305;SDS011;14792;50.886;6.468;2023-04-25T06:51:20;24.40;;;7.53;;
27305;SDS011;14792;50.886;6.468;2023-04-25T06:54:22;22.50;;;6.90;;
27305;SDS011;14792;50.886;6.468;2023-04-25T06:57:23;25.77;;;5.97;;
27305;SDS011;14792;50.886;6.468;2023-04-25T07:00:25;15.32;;;5.62;;
27305;SDS011;14792;50.886;6.468;2023-04-25T07:03:26;22.27;;;5.97;;
27305;SDS011;14792;50.886;6.468;2023-04-25T07:06:28;28.20;;;6.17;;
27305;SDS011;14792;50.886;6.468;2023-04-25T07:09:30;26.30;;;9.93;;
27305;SDS011;14792;50.886;6.468;2023-04-25T07:12:31;29.80;;;5.83;;
27305;SDS011;14792;50.886;6.468;2023-04-25T07:15:33;21.97;;;5.47;;
27305;SDS011;14792;50.886;6.468;2023-04-25T07:18:34;20.65;;;5.22;;
27305;SDS011;14792;50.886;6.468;2023-04-25T07:21:36;26.42;;;5.50;;
27305;SDS011;14792;50.886;6.468;2023-04-25T07:24:38;23.73;;;4.25;;
27305;SDS011;14792;50.886;6.468;2023-04-25T07:27:39;20.62;;;4.95;;
27305;SDS011;14792;50.886;6.468;2023-04-25T07:30:41;18.32;;;4.78;;
27305;SDS011;14792;50.886;6.468;2023-04-25T07:33:42;23.10;;;5.00;;
27305;SDS011;14792;50.886;6.468;2023-04-25T07:36:44;24.67;;;5.37;;
27305;SDS011;14792;50.886;6.468;2023-04-25T07:39:46;19.40;;;3.90;;
27305;SDS011;14792;50.886;6.468;2023-04-25T07:42:47;36.25;;;5.60;;
27305;SDS011;14792;50.886;6.468;2023-04-25T07:45:49;14.45;;;3.50;;
27305;SDS011;14792;50.886;6.468;2023-04-25T07:48:50;26.55;;;4.28;;
27305;SDS011;14792;50.886;6.468;2023-04-25T07:51:52;16.62;;;4.00;;
27305;SDS011;14792;50.886;6.468;2023-04-25T07:54:53;15.95;;;4.08;;
27305;SDS011;14792;50.886;6.468;2023-04-25T07:57:55;19.80;;;4.05;;
27305;SDS011;14792;50.886;6.468;2023-04-25T08:00:57;14.43;;;3.22;;
27305;SDS011;14792;50.886;6.468;2023-04-25T08:03:58;10.55;;;3.00;;
27305;SDS011;14792;50.886;6.468;2023-04-25T08:07:00;17.17;;;3.52;;
27305;SDS011;14792;50.886;6.468;2023-04-25T08:10:01;24.27;;;4.17;;
27305;SDS011;14792;50.886;6.468;2023-04-25T08:13:03;17.35;;;4.47;;
27305;SDS011;14792;50.886;6.468;2023-04-25T08:16:05;18.60;;;4.20;;
27305;SDS011;14792;50.886;6.468;2023-04-25T08:19:06;31.68;;;4.62;;
27305;SDS011;14792;50.886;6.468;2023-04-25T08:22:08;13.60;;;3.85;;
27305;SDS011;14792;50.886;6.468;2023-04-25T08:25:10;13.98;;;4.00;;
27305;SDS011;14792;50.886;6.468;2023-04-25T08:28:11;15.30;;;3.72;;
27305;SDS011;14792;50.886;6.468;2023-04-25T08:31:13;13.80;;;3.20;;
27305;SDS011;14792;50.886;6.468;2023-04-25T08:34:14;20.72;;;3.55;;
27305;SDS011;14792;50.886;6.468;2023-04-25T08:37:16;16.60;;;4.03;;
27305;SDS011;14792;50.886;6.468;2023-04-25T08:40:17;17.90;;;2.92;;
27305;SDS011;14792;50.886;6.468;2023-04-25T08:43:21;14.73;;;3.30;;
27305;SDS011;14792;50.886;6.468;2023-04-25T08:46:23;15.43;;;2.87;;
27305;SDS011;14792;50.886;6.468;2023-04-25T08:49:24;14.20;;;2.85;;
27305;SDS011;14792;50.886;6.468;2023-04-25T08:52:27;15.30;;;2.95;;
27305;SDS011;14792;50.886;6.468;2023-04-25T08:55:28;12.43;;;3.20;;
27305;SDS011;14792;50.886;6.468;2023-04-25T08:58:30;13.78;;;2.87;;
27305;SDS011;14792;50.886;6.468;2023-04-25T09:01:31;12.05;;;2.33;;
27305;SDS011;14792;50.886;6.468;2023-04-25T09:04:33;11.95;;;3.37;;
27305;SDS011;14792;50.886;6.468;2023-04-25T09:07:34;12.50;;;2.87;;
27305;SDS011;14792;50.886;6.468;2023-04-25T09:10:36;14.13;;;3.27;;
27305;SDS011;14792;50.886;6.468;2023-04-25T09:13:38;15.83;;;2.92;;
27305;SDS011;14792;50.886;6.468;2023-04-25T09:20:08;24.07;;;3.52;;
27305;SDS011;14792;50.886;6.468;2023-04-25T09:23:09;15.60;;;3.62;;
27305;SDS011;14792;50.886;6.468;2023-04-25T09:26:10;16.65;;;3.40;;
27305;SDS011;14792;50.886;6.468;2023-04-25T09:29:12;16.82;;;3.30;;
27305;SDS011;14792;50.886;6.468;2023-04-25T09:35:24;18.52;;;3.87;;
27305;SDS011;14792;50.886;6.468;2023-04-25T09:38:25;15.75;;;3.95;;
27305;SDS011;14792;50.886;6.468;2023-04-25T09:41:26;15.43;;;3.30;;
27305;SDS011;14792;50.886;6.468;2023-04-25T09:44:28;18.52;;;3.37;;
27305;SDS011;14792;50.886;6.468;2023-04-25T09:47:30;16.97;;;3.40;;
27305;SDS011;14792;50.886;6.468;2023-04-25T09:50:31;16.75;;;3.65;;
27305;SDS011;14792;50.886;6.468;2023-04-25T09:53:37;12.33;;;3.22;;
27305;SDS011;14792;50.886;6.468;2023-04-25T09:56:37;13.75;;;3.25;;
27305;SDS011;14792;50.886;6.468;2023-04-25T09:59:39;15.25;;;3.20;;
27305;SDS011;14792;50.886;6.468;2023-04-25T10:02:42;15.25;;;2.60;;
27305;SDS011;14792;50.886;6.468;2023-04-25T10:05:42;12.43;;;3.30;;
27305;SDS011;14792;50.886;6.468;2023-04-25T10:08:44;21.23;;;3.30;;
27305;SDS011;14792;50.886;6.468;2023-04-25T10:11:45;18.00;;;3.30;;
27305;SDS011;14792;50.886;6.468;2023-04-25T10:14:47;12.28;;;2.90;;
27305;SDS011;14792;50.886;6.468;2023-04-25T10:17:49;11.15;;;2.87;;
27305;SDS011;14792;50.886;6.468;2023-04-25T10:20:50;9.73;;;3.17;;
27305;SDS011;14792;50.886;6.468;2023-04-25T10:23:51;9.83;;;2.30;;
27305;SDS011;14792;50.886;6.468;2023-04-25T10:26:53;14.05;;;3.45;;
27305;SDS011;14792;50.886;6.468;2023-04-25T10:33:16;13.32;;;3.10;;
27305;SDS011;14792;50.886;6.468;2023-04-25T10:36:19;7.97;;;2.72;;
27305;SDS011;14792;50.886;6.468;2023-04-25T10:39:24;18.77;;;9.05;;
27305;SDS011;14792;50.886;6.468;2023-04-25T10:42:25;11.78;;;4.08;;
27305;SDS011;14792;50.886;6.468;2023-04-25T10:45:26;17.70;;;4.28;;
27305;SDS011;14792;50.886;6.468;2023-04-25T10:48:31;13.83;;;3.80;;
27305;SDS011;14792;50.886;6.468;2023-04-25T10:51:35;12.82;;;3.58;;
27305;SDS011;14792;50.886;6.468;2023-04-25T10:54:34;15.18;;;3.33;;
27305;SDS011;14792;50.886;6.468;2023-04-25T10:57:39;9.38;;;2.85;;
27305;SDS011;14792;50.886;6.468;2023-04-25T11:00:40;11.63;;;3.58;;
27305;SDS011;14792;50.886;6.468;2023-04-25T11:03:42;15.28;;;3.22;;
27305;SDS011;14792;50.886;6.468;2023-04-25T11:10:21;13.15;;;2.92;;
27305;SDS011;14792;50.886;6.468;2023-04-25T11:13:22;11.90;;;2.70;;
27305;SDS011;14792;50.886;6.468;2023-04-25T11:16:24;13.35;;;3.33;;
27305;SDS011;14792;50.886;6.468;2023-04-25T11:19:26;13.38;;;2.90;;
27305;SDS011;14792;50.886;6.468;2023-04-25T11:22:27;13.25;;;3.25;;
27305;SDS011;14792;50.886;6.468;2023-04-25T11:25:29;16.85;;;3.27;;
27305;SDS011;14792;50.886;6.468;2023-04-25T11:28:31;16.27;;;4.08;;
27305;SDS011;14792;50.886;6.468;2023-04-25T11:31:33;11.75;;;2.70;;
27305;SDS011;14792;50.886;6.468;2023-04-25T11:34:34;10.85;;;3.52;;
27305;SDS011;14792;50.886;6.468;2023-04-25T11:37:36;11.00;;;2.83;;
27305;SDS011;14792;50.886;6.468;2023-04-25T11:40:37;18.30;;;3.33;;
27305;SDS011;14792;50.886;6.468;2023-04-25T11:43:39;17.65;;;3.40;;
27305;SDS011;14792;50.886;6.468;2023-04-25T11:46:41;12.75;;;3.17;;
27305;SDS011;14792;50.886;6.468;2023-04-25T11:49:42;12.10;;;3.55;;
27305;SDS011;14792;50.886;6.468;2023-04-25T11:52:45;8.43;;;2.98;;
27305;SDS011;14792;50.886;6.468;2023-04-25T11:55:45;9.75;;;2.45;;
27305;SDS011;14792;50.886;6.468;2023-04-25T11:59:00;7.62;;;2.40;;
27305;SDS011;14792;50.886;6.468;2023-04-25T12:02:00;9.05;;;2.30;;
27305;SDS011;14792;50.886;6.468;2023-04-25T12:05:03;10.13;;;2.45;;
27305;SDS011;14792;50.886;6.468;2023-04-25T12:08:10;9.75;;;3.02;;
27305;SDS011;14792;50.886;6.468;2023-04-25T12:11:21;14.65;;;2.75;;
27305;SDS011;14792;50.886;6.468;2023-04-25T12:14:23;12.07;;;3.05;;
27305;SDS011;14792;50.886;6.468;2023-04-25T12:17:28;11.57;;;2.87;;
27305;SDS011;14792;50.886;6.468;2023-04-25T12:20:28;10.13;;;2.62;;
27305;SDS011;14792;50.886;6.468;2023-04-25T12:23:30;13.58;;;2.52;;
27305;SDS011;14792;50.886;6.468;2023-04-25T12:26:45;10.93;;;2.60;;
27305;SDS011;14792;50.886;6.468;2023-04-25T12:29:33;15.83;;;2.67;;
27305;SDS011;14792;50.886;6.468;2023-04-25T12:32:35;10.43;;;4.75;;
27305;SDS011;14792;50.886;6.468;2023-04-25T12:35:36;15.38;;;4.92;;
27305;SDS011;14792;50.886;6.468;2023-04-25T12:38:38;7.15;;;3.02;;
27305;SDS011;14792;50.886;6.468;2023-04-25T12:41:39;26.97;;;3.30;;
27305;SDS011;14792;50.886;6.468;2023-04-25T12:44:41;14.63;;;2.85;;
27305;SDS011;14792;50.886;6.468;2023-04-25T12:47:43;10.05;;;2.17;;
27305;SDS011;14792;50.886;6.468;2023-04-25T12:50:44;12.10;;;2.33;;
27305;SDS011;14792;50.886;6.468;2023-04-25T12:53:47;9.20;;;2.27;;
27305;SDS011;14792;50.886;6.468;2023-04-25T12:56:48;9.65;;;2.40;;
27305;SDS011;14792;50.886;6.468;2023-04-25T12:59:50;8.38;;;2.08;;
27305;SDS011;14792;50.886;6.468;2023-04-25T13:02:51;7.35;;;2.12;;
27305;SDS011;14792;50.886;6.468;2023-04-25T13:05:53;6.97;;;1.85;;
27305;SDS011;14792;50.886;6.468;2023-04-25T13:08:55;8.18;;;2.10;;
27305;SDS011;14792;50.886;6.468;2023-04-25T13:11:56;12.53;;;2.40;;
27305;SDS011;14792;50.886;6.468;2023-04-25T13:14:58;12.65;;;2.40;;
27305;SDS011;14792;50.886;6.468;2023-04-25T13:17:59;7.20;;;2.30;;
27305;SDS011;14792;50.886;6.468;2023-04-25T13:21:01;11.75;;;2.92;;
27305;SDS011;14792;50.886;6.468;2023-04-25T13:24:03;8.13;;;2.35;;
27305;SDS011;14792;50.886;6.468;2023-04-25T13:30:07;12.55;;;2.15;;
27305;SDS011;14792;50.886;6.468;2023-04-25T13:33:09;9.58;;;2.40;;
27305;SDS011;14792;50.886;6.468;2023-04-25T13:36:11;8.25;;;2.00;;
27305;SDS011;14792;50.886;6.468;2023-04-25T13:39:12;11.90;;;2.25;;
27305;SDS011;14792;50.886;6.468;2023-04-25T13:42:14;10.85;;;2.02;;
27305;SDS011;14792;50.886;6.468;2023-04-25T13:45:15;9.95;;;2.60;;
27305;SDS011;14792;50.886;6.468;2023-04-25T13:48:18;9.10;;;2.27;;
27305;SDS011;14792;50.886;6.468;2023-04-25T13:51:19;9.90;;;2.55;;
27305;SDS011;14792;50.886;6.468;2023-04-25T13:54:20;6.83;;;2.22;;
27305;SDS011;14792;50.886;6.468;2023-04-25T13:57:22;7.42;;;2.08;;
27305;SDS011;14792;50.886;6.468;2023-04-25T14:00:23;6.40;;;1.65;;
27305;SDS011;14792;50.886;6.468;2023-04-25T14:03:25;5.10;;;2.05;;
27305;SDS011;14792;50.886;6.468;2023-04-25T14:06:27;8.00;;;1.82;;
27305;SDS011;14792;50.886;6.468;2023-04-25T14:09:28;10.53;;;2.25;;
27305;SDS011;14792;50.886;6.468;2023-04-25T14:12:30;10.58;;;2.20;;
27305;SDS011;14792;50.886;6.468;2023-04-25T14:15:32;7.12;;;2.00;;
27305;SDS011;14792;50.886;6.468;2023-04-25T14:18:33;8.45;;;2.30;;
27305;SDS011;14792;50.886;6.468;2023-04-25T14:21:35;11.83;;;2.72;;
27305;SDS011;14792;50.886;6.468;2023-04-25T14:24:37;8.40;;;2.27;;
27305;SDS011;14792;50.886;6.468;2023-04-25T14:27:39;6.80;;;1.47;;
27305;SDS011;14792;50.886;6.468;2023-04-25T14:30:40;8.10;;;1.85;;
27305;SDS011;14792;50.886;6.468;2023-04-25T14:33:42;5.40;;;1.75;;
27305;SDS011;14792;50.886;6.468;2023-04-25T14:36:44;8.25;;;2.35;;
27305;SDS011;14792;50.886;6.468;2023-04-25T14:39:45;5.87;;;1.90;;
27305;SDS011;14792;50.886;6.468;2023-04-25T14:42:47;7.22;;;1.95;;
27305;SDS011;14792;50.886;6.468;2023-04-25T14:45:49;6.67;;;1.95;;
27305;SDS011;14792;50.886;6.468;2023-04-25T14:48:50;17.25;;;2.12;;
27305;SDS011;14792;50.886;6.468;2023-04-25T14:51:54;7.75;;;2.05;;
27305;SDS011;14792;50.886;6.468;2023-04-25T14:54:55;5.78;;;2.05;;
27305;SDS011;14792;50.886;6.468;2023-04-25T14:57:57;7.55;;;2.10;;
27305;SDS011;14792;50.886;6.468;2023-04-25T15:00:59;16.95;;;2.95;;
27305;SDS011;14792;50.886;6.468;2023-04-25T15:04:00;6.67;;;1.90;;
27305;SDS011;14792;50.886;6.468;2023-04-25T15:07:01;6.83;;;1.60;;
27305;SDS011;14792;50.886;6.468;2023-04-25T15:10:03;3.98;;;1.20;;
27305;SDS011;14792;50.886;6.468;2023-04-25T15:13:05;4.75;;;1.60;;
27305;SDS011;14792;50.886;6.468;2023-04-25T15:16:06;5.40;;;1.52;;
27305;SDS011;14792;50.886;6.468;2023-04-25T15:19:10;7.78;;;1.57;;
27305;SDS011;14792;50.886;6.468;2023-04-25T15:22:12;5.05;;;1.70;;
27305;SDS011;14792;50.886;6.468;2023-04-25T15:25:14;5.47;;;1.27;;
27305;SDS011;14792;50.886;6.468;2023-04-25T15:28:15;4.85;;;1.47;;
27305;SDS011;14792;50.886;6.468;2023-04-25T15:31:17;2.77;;;1.30;;
27305;SDS011;14792;50.886;6.468;2023-04-25T15:34:19;6.67;;;1.70;;
27305;SDS011;14792;50.886;6.468;2023-04-25T15:37:21;6.25;;;1.45;;
27305;SDS011;14792;50.886;6.468;2023-04-25T15:40:23;5.08;;;1.60;;
27305;SDS011;14792;50.886;6.468;2023-04-25T15:43:24;6.47;;;2.05;;
27305;SDS011;14792;50.886;6.468;2023-04-25T15:46:26;5.12;;;1.20;;
27305;SDS011;14792;50.886;6.468;2023-04-25T15:49:27;9.08;;;1.62;;
27305;SDS011;14792;50.886;6.468;2023-04-25T15:52:29;4.97;;;1.40;;
27305;SDS011;14792;50.886;6.468;2023-04-25T15:55:31;6.33;;;1.57;;
27305;SDS011;14792;50.886;6.468;2023-04-25T15:58:32;6.70;;;1.32;;
27305;SDS011;14792;50.886;6.468;2023-04-25T16:01:34;6.45;;;1.00;;
27305;SDS011;14792;50.886;6.468;2023-04-25T16:04:35;6.72;;;1.15;;
27305;SDS011;14792;50.886;6.468;2023-04-25T16:07:38;8.05;;;1.40;;
27305;SDS011;14792;50.886;6.468;2023-04-25T16:10:39;4.55;;;1.37;;
27305;SDS011;14792;50.886;6.468;2023-04-25T16:13:40;8.08;;;1.90;;
27305;SDS011;14792;50.886;6.468;2023-04-25T16:16:42;8.53;;;1.70;;
27305;SDS011;14792;50.886;6.468;2023-04-25T16:19:44;6.42;;;1.30;;
27305;SDS011;14792;50.886;6.468;2023-04-25T16:22:45;4.80;;;1.35;;
27305;SDS011;14792;50.886;6.468;2023-04-25T16:25:47;5.55;;;1.95;;
27305;SDS011;14792;50.886;6.468;2023-04-25T16:28:48;5.15;;;1.60;;
27305;SDS011;14792;50.886;6.468;2023-04-25T16:31:52;7.37;;;1.42;;
27305;SDS011;14792;50.886;6.468;2023-04-25T16:34:53;4.83;;;1.67;;
27305;SDS011;14792;50.886;6.468;2023-04-25T16:37:55;6.75;;;1.50;;
27305;SDS011;14792;50.886;6.468;2023-04-25T16:40:56;7.60;;;1.47;;
27305;SDS011;14792;50.886;6.468;2023-04-25T16:43:59;7.25;;;1.75;;
27305;SDS011;14792;50.886;6.468;2023-04-25T16:50:01;3.05;;;1.22;;
27305;SDS011;14792;50.886;6.468;2023-04-25T16:53:03;6.55;;;1.35;;
27305;SDS011;14792;50.886;6.468;2023-04-25T16:56:04;7.10;;;1.55;;
27305;SDS011;14792;50.886;6.468;2023-04-25T16:59:06;5.87;;;1.30;;
27305;SDS011;14792;50.886;6.468;2023-04-25T17:02:09;6.08;;;2.08;;
27305;SDS011;14792;50.886;6.468;2023-04-25T17:05:09;11.65;;;2.05;;
27305;SDS011;14792;50.886;6.468;2023-04-25T17:08:11;5.95;;;1.40;;
27305;SDS011;14792;50.886;6.468;2023-04-25T17:11:13;5.78;;;1.20;;
27305;SDS011;14792;50.886;6.468;2023-04-25T17:14:14;6.67;;;2.08;;
27305;SDS011;14792;50.886;6.468;2023-04-25T17:17:16;4.87;;;1.57;;
27305;SDS011;14792;50.886;6.468;2023-04-25T17:20:17;3.70;;;1.22;;
27305;SDS011;14792;50.886;6.468;2023-04-25T17:23:19;5.12;;;1.45;;
27305;SDS011;14792;50.886;6.468;2023-04-25T17:26:21;5.60;;;1.75;;
27305;SDS011;14792;50.886;6.468;2023-04-25T17:29:23;2.98;;;1.30;;
27305;SDS011;14792;50.886;6.468;2023-04-25T17:32:25;7.78;;;1.85;;
27305;SDS011;14792;50.886;6.468;2023-04-25T17:35:27;6.72;;;1.95;;
27305;SDS011;14792;50.886;6.468;2023-04-25T17:38:28;7.40;;;1.92;;
27305;SDS011;14792;50.886;6.468;2023-04-25T17:41:30;6.50;;;1.50;;
27305;SDS011;14792;50.886;6.468;2023-04-25T17:44:32;6.42;;;1.80;;
27305;SDS011;14792;50.886;6.468;2023-04-25T17:47:33;7.15;;;2.15;;
27305;SDS011;14792;50.886;6.468;2023-04-25T17:50:35;8.30;;;2.15;;
27305;SDS011;14792;50.886;6.468;2023-04-25T17:53:37;8.55;;;2.00;;
27305;SDS011;14792;50.886;6.468;2023-04-25T17:56:38;7.85;;;2.30;;
27305;SDS011;14792;50.886;6.468;2023-04-25T17:59:40;10.90;;;2.25;;
27305;SDS011;14792;50.886;6.468;2023-04-25T18:02:41;6.72;;;2.15;;
27305;SDS011;14792;50.886;6.468;2023-04-25T18:05:43;6.20;;;1.85;;
27305;SDS011;14792;50.886;6.468;2023-04-25T18:08:45;7.62;;;1.98;;
27305;SDS011;14792;50.886;6.468;2023-04-25T18:11:46;11.12;;;3.52;;
27305;SDS011;14792;50.886;6.468;2023-04-25T18:14:48;10.28;;;3.02;;
27305;SDS011;14792;50.886;6.468;2023-04-25T18:17:49;8.38;;;2.08;;
27305;SDS011;14792;50.886;6.468;2023-04-25T18:20:51;10.58;;;2.08;;
27305;SDS011;14792;50.886;6.468;2023-04-25T18:23:53;5.53;;;1.52;;
27305;SDS011;14792;50.886;6.468;2023-04-25T18:26:54;6.90;;;1.95;;